createdAt,value
2018-06-21T00:01:45.032Z,20.50
2018-06-21T00:04:13.999Z,20.40
2018-06-21T00:06:43.072Z,20.40
2018-06-21T00:09:12.011Z,20.40
2018-06-21T00:11:40.962Z,20.30
2018-06-21T00:14:10.135Z,20.40
2018-06-21T00:16:39.194Z,20.20
2018-06-21T00:19:08.201Z,20.10
2018-06-21T00:21:37.134Z,20.00
2018-06-21T00:24:06.127Z,20.00
2018-06-21T00:26:35.031Z,20.00
2018-06-21T00:29:03.948Z,20.00
2018-06-21T00:31:32.871Z,20.00
2018-06-21T00:34:01.825Z,19.90
2018-06-21T00:36:30.824Z,19.90
2018-06-21T00:38:59.748Z,19.80
2018-06-21T00:41:28.750Z,19.90
2018-06-21T00:43:57.651Z,19.90
2018-06-21T00:46:26.558Z,19.80
2018-06-21T00:48:55.604Z,19.80
2018-06-21T00:51:24.590Z,19.80
2018-06-21T00:53:53.484Z,19.70
2018-06-21T00:56:22.409Z,19.70
2018-06-21T00:58:51.354Z,19.70
2018-06-21T01:01:20.810Z,19.70
2018-06-21T01:03:49.720Z,19.60
2018-06-21T01:06:18.638Z,19.60
2018-06-21T01:08:47.974Z,19.50
2018-06-21T01:11:16.905Z,19.50
2018-06-21T01:13:46.332Z,19.40
2018-06-21T01:16:15.458Z,19.50
2018-06-21T01:18:44.412Z,19.40
2018-06-21T01:21:13.320Z,19.40
2018-06-21T01:23:42.243Z,19.30
2018-06-21T01:26:11.134Z,19.30
2018-06-21T01:28:40.083Z,19.30
2018-06-21T01:31:09.046Z,19.30
2018-06-21T01:33:37.987Z,19.20
2018-06-21T01:36:06.934Z,19.20
2018-06-21T01:38:36.091Z,19.20
2018-06-21T01:41:05.118Z,19.20
2018-06-21T01:43:34.066Z,19.10
2018-06-21T01:46:03.018Z,19.10
2018-06-21T01:48:31.930Z,19.00
2018-06-21T01:51:00.910Z,19.00
2018-06-21T01:53:29.845Z,19.00
2018-06-21T01:55:58.835Z,18.90
2018-06-21T01:58:27.810Z,18.90
2018-06-21T02:00:56.702Z,18.90
2018-06-21T02:03:25.619Z,18.80
2018-06-21T02:05:54.615Z,18.70
2018-06-21T02:08:23.552Z,18.70
2018-06-21T02:10:52.506Z,18.70
2018-06-21T02:13:21.418Z,18.70
2018-06-21T02:15:50.305Z,18.70
2018-06-21T02:18:19.218Z,18.60
2018-06-21T02:20:48.146Z,18.50
2018-06-21T02:23:17.041Z,18.60
2018-06-21T02:25:45.999Z,18.50
2018-06-21T02:28:14.925Z,18.50
2018-06-21T02:30:43.838Z,18.60
2018-06-21T02:33:12.746Z,18.50
2018-06-21T02:35:41.666Z,18.50
2018-06-21T02:38:10.570Z,18.60
2018-06-21T02:43:09.257Z,18.60
2018-06-21T02:45:38.246Z,18.60
2018-06-21T02:48:07.146Z,18.60
2018-06-21T02:50:36.040Z,18.60
2018-06-21T02:53:04.966Z,18.60
2018-06-21T02:55:33.907Z,18.60
2018-06-21T02:58:03.155Z,18.60
2018-06-21T03:00:32.152Z,18.60
2018-06-21T03:03:01.076Z,18.60
2018-06-21T03:05:29.971Z,18.60
2018-06-21T03:07:58.898Z,18.70
2018-06-21T03:10:28.246Z,18.60
2018-06-21T03:12:57.210Z,18.70
2018-06-21T03:15:26.614Z,18.70
2018-06-21T03:17:55.586Z,18.70
2018-06-21T03:20:24.517Z,18.80
2018-06-21T03:22:53.611Z,19.00
2018-06-21T03:25:22.535Z,19.60
2018-06-21T03:30:20.050Z,21.40
2018-06-21T03:32:48.931Z,22.30
2018-06-21T03:35:17.890Z,23.20
2018-06-21T03:37:46.815Z,23.70
2018-06-21T03:40:15.744Z,24.10
2018-06-21T03:42:44.696Z,24.60
2018-06-21T03:45:13.716Z,25.00
2018-06-21T03:47:42.659Z,24.90
2018-06-21T03:50:11.591Z,24.70
2018-06-21T03:52:40.467Z,24.70
2018-06-21T03:55:09.419Z,24.60
2018-06-21T03:57:38.353Z,24.60
2018-06-21T04:00:07.584Z,24.90
2018-06-21T04:02:36.531Z,25.30
2018-06-21T04:05:05.627Z,25.50
2018-06-21T04:07:34.566Z,25.60
2018-06-21T04:10:03.464Z,25.80
2018-06-21T04:12:32.382Z,26.00
2018-06-21T04:15:01.304Z,26.10
2018-06-21T04:17:30.784Z,25.90
2018-06-21T04:20:00.152Z,25.70
2018-06-21T04:22:29.156Z,25.50
2018-06-21T04:24:58.060Z,25.30
2018-06-21T04:27:26.964Z,25.10
2018-06-21T04:29:56.037Z,24.80
2018-06-21T04:32:24.990Z,24.60
2018-06-21T04:34:53.948Z,24.50
2018-06-21T04:37:22.927Z,24.60
2018-06-21T04:39:51.844Z,24.90
2018-06-21T04:42:20.835Z,24.80
2018-06-21T04:44:49.770Z,25.00
2018-06-21T04:47:18.689Z,25.10
2018-06-21T04:49:47.669Z,25.10
2018-06-21T04:52:16.578Z,25.30
2018-06-21T04:54:45.533Z,25.40
2018-06-21T04:57:14.482Z,25.50
2018-06-21T04:59:44.030Z,25.60
2018-06-21T05:02:12.967Z,25.80
2018-06-21T05:04:41.916Z,26.00
2018-06-21T05:07:11.394Z,26.40
2018-06-21T05:09:40.358Z,26.70
2018-06-21T05:12:09.391Z,26.90
2018-06-21T05:14:38.859Z,26.90
2018-06-21T05:17:07.814Z,27.10
2018-06-21T05:19:36.703Z,27.30
2018-06-21T05:22:05.642Z,27.70
2018-06-21T05:24:35.141Z,28.20
2018-06-21T05:27:04.134Z,28.70
2018-06-21T05:29:33.119Z,29.00
2018-06-21T05:32:02.103Z,29.40
2018-06-21T05:34:31.013Z,29.80
2018-06-21T05:37:00.048Z,30.10
2018-06-21T05:39:29.016Z,30.70
2018-06-21T05:41:58.370Z,31.40
2018-06-21T05:44:27.329Z,32.30
2018-06-21T05:46:56.551Z,32.90
2018-06-21T05:49:25.993Z,33.60
2018-06-21T05:51:54.948Z,35.00
2018-06-21T05:54:23.879Z,36.00
2018-06-21T05:56:52.798Z,37.50
2018-06-21T05:59:21.850Z,38.50
2018-06-21T06:01:50.811Z,39.80
2018-06-21T06:04:19.728Z,40.60
2018-06-21T06:06:48.831Z,41.40
2018-06-21T06:09:18.028Z,42.00
2018-06-21T06:11:47.207Z,42.10
2018-06-21T06:14:16.354Z,42.40
2018-06-21T06:16:45.818Z,44.10
2018-06-21T06:19:14.985Z,44.20
2018-06-21T06:21:44.429Z,44.30
2018-06-21T06:26:42.267Z,45.60
2018-06-21T06:29:11.402Z,45.50
2018-06-21T06:31:41.148Z,46.00
2018-06-21T06:34:10.244Z,46.60
2018-06-21T06:36:39.644Z,46.80
2018-06-21T06:39:16.135Z,47.50
2018-06-21T06:41:46.416Z,48.20
2018-06-21T06:44:15.500Z,48.60
2018-06-21T06:46:44.663Z,48.10
2018-06-21T06:49:13.973Z,49.30
2018-06-21T06:51:43.113Z,49.00
2018-06-21T06:54:12.957Z,49.80
2018-06-21T06:56:42.383Z,50.00
2018-06-21T06:59:11.546Z,49.00
2018-06-21T07:01:40.690Z,48.80
2018-06-21T07:06:39.085Z,49.90
2018-06-21T07:11:37.640Z,48.80
2018-06-21T07:14:07.272Z,48.00
2018-06-21T07:16:36.444Z,48.50
2018-06-21T07:19:06.028Z,49.20
2018-06-21T07:21:38.311Z,48.60
2018-06-21T07:24:07.596Z,48.70
2018-06-21T07:26:37.436Z,48.80
2018-06-21T07:29:06.776Z,48.50
2018-06-21T07:31:35.978Z,48.50
2018-06-21T07:34:05.459Z,48.90
2018-06-21T07:36:34.659Z,48.60
2018-06-21T07:39:04.011Z,49.20
2018-06-21T07:41:33.712Z,49.10
2018-06-21T07:44:03.306Z,49.60
2018-06-21T07:46:32.769Z,50.50
2018-06-21T07:49:01.793Z,51.50
2018-06-21T07:51:31.105Z,51.40
2018-06-21T07:54:00.387Z,50.30
2018-06-21T07:56:30.038Z,50.30
2018-06-21T07:58:59.258Z,50.20
2018-06-21T08:01:28.391Z,50.50
2018-06-21T08:03:57.386Z,50.50
2018-06-21T08:06:26.536Z,51.10
2018-06-21T08:08:55.731Z,51.00
2018-06-21T08:11:24.654Z,51.40
2018-06-21T08:13:53.599Z,50.90
2018-06-21T08:16:22.498Z,50.40
2018-06-21T08:18:51.431Z,50.70
2018-06-21T08:21:20.524Z,50.60
2018-06-21T08:23:49.774Z,50.70
2018-06-21T08:26:18.978Z,51.00
2018-06-21T08:28:48.070Z,50.70
2018-06-21T08:31:17.028Z,50.30
2018-06-21T08:33:45.921Z,50.60
2018-06-21T08:36:14.923Z,51.30
2018-06-21T08:38:44.036Z,51.60
2018-06-21T08:41:13.266Z,51.60
2018-06-21T08:43:42.402Z,51.10
2018-06-21T08:46:11.333Z,51.10
2018-06-21T08:48:40.776Z,50.90
2018-06-21T08:51:09.941Z,48.10
2018-06-21T08:53:39.658Z,46.30
2018-06-21T08:56:08.863Z,45.30
2018-06-21T08:58:37.972Z,44.40
2018-06-21T09:01:07.255Z,44.40
2018-06-21T09:03:36.382Z,43.00
2018-06-21T09:06:05.577Z,41.30
2018-06-21T09:08:35.097Z,41.50
2018-06-21T09:11:04.343Z,40.80
2018-06-21T09:13:36.154Z,40.30
2018-06-21T09:16:06.751Z,40.60
2018-06-21T09:18:35.851Z,42.10
2018-06-21T09:21:05.104Z,43.50
2018-06-21T09:23:34.275Z,42.10
2018-06-21T09:26:03.682Z,40.50
2018-06-21T09:28:32.624Z,39.60
2018-06-21T09:31:02.020Z,38.80
2018-06-21T09:33:31.041Z,38.00
2018-06-21T09:35:59.963Z,37.10
2018-06-21T09:38:34.219Z,36.70
2018-06-21T09:41:08.359Z,36.70
2018-06-21T09:43:50.301Z,36.40
2018-06-21T09:46:16.723Z,36.10
2018-06-21T09:48:50.439Z,36.00
2018-06-21T09:51:19.442Z,35.60
2018-06-21T09:53:48.549Z,35.60
2018-06-21T09:56:17.484Z,35.50
2018-06-21T09:58:46.406Z,35.50
2018-06-21T10:03:43.902Z,35.30
2018-06-21T10:06:12.850Z,35.40
2018-06-21T10:08:41.742Z,35.50
2018-06-21T10:11:25.215Z,35.60
2018-06-21T10:13:54.127Z,35.60
2018-06-21T10:16:23.079Z,35.60
2018-06-21T10:18:52.031Z,35.60
2018-06-21T10:21:21.068Z,35.70
2018-06-21T10:23:50.015Z,35.70
2018-06-21T10:26:18.970Z,35.60
2018-06-21T10:28:47.917Z,35.70
2018-06-21T10:31:16.834Z,35.90
2018-06-21T10:33:45.996Z,35.80
2018-06-21T10:36:14.954Z,35.90
2018-06-21T10:38:43.995Z,35.80
2018-06-21T10:41:12.985Z,35.70
2018-06-21T10:43:41.967Z,35.60
2018-06-21T10:46:10.920Z,35.70
2018-06-21T10:48:39.865Z,35.60
2018-06-21T10:51:08.753Z,35.50
2018-06-21T10:53:37.631Z,35.40
2018-06-21T10:56:06.690Z,35.40
2018-06-21T10:58:35.661Z,35.40
2018-06-21T11:01:04.655Z,35.20
2018-06-21T11:03:33.544Z,35.20
2018-06-21T11:06:02.506Z,35.30
2018-06-21T11:08:31.446Z,35.40
2018-06-21T11:11:00.414Z,35.50
2018-06-21T11:13:29.357Z,35.50
2018-06-21T11:15:58.309Z,35.50
2018-06-21T11:18:27.175Z,35.60
2018-06-21T11:20:56.129Z,35.50
2018-06-21T11:23:25.027Z,35.40
2018-06-21T11:25:53.942Z,35.20
2018-06-21T11:28:22.862Z,35.20
2018-06-21T11:30:51.783Z,35.40
2018-06-21T11:33:21.309Z,35.50
2018-06-21T11:35:50.789Z,35.50
2018-06-21T11:38:19.711Z,35.60
2018-06-21T11:40:48.613Z,35.50
2018-06-21T11:43:17.535Z,35.60
2018-06-21T11:45:46.487Z,35.80
2018-06-21T11:48:15.449Z,35.80
2018-06-21T11:50:44.862Z,35.50
2018-06-21T11:53:13.840Z,35.30
2018-06-21T11:55:42.725Z,35.30
2018-06-21T11:58:11.644Z,35.30
2018-06-21T12:00:40.613Z,35.20
2018-06-21T12:03:09.623Z,35.10
2018-06-21T12:05:38.608Z,34.70
2018-06-21T12:08:07.589Z,34.60
2018-06-21T12:10:36.515Z,34.70
2018-06-21T12:13:05.395Z,34.90
2018-06-21T12:15:35.086Z,35.00
2018-06-21T12:18:04.011Z,35.20
2018-06-21T12:20:33.477Z,35.30
2018-06-21T12:23:02.376Z,35.20
2018-06-21T12:25:31.321Z,35.00
2018-06-21T12:28:00.195Z,34.80
2018-06-21T12:30:29.131Z,34.90
2018-06-21T12:32:58.035Z,34.80
2018-06-21T12:35:26.967Z,34.70
2018-06-21T12:37:55.923Z,34.60
2018-06-21T12:40:24.874Z,34.80
2018-06-21T12:42:53.920Z,35.10
2018-06-21T12:45:22.955Z,35.30
2018-06-21T12:47:51.935Z,35.30
2018-06-21T12:50:20.855Z,35.20
2018-06-21T12:52:50.313Z,35.10
2018-06-21T12:55:19.476Z,35.10
2018-06-21T12:57:48.490Z,35.10
2018-06-21T13:00:17.552Z,35.00
2018-06-21T13:02:46.488Z,35.00
2018-06-21T13:05:15.444Z,34.90
2018-06-21T13:07:44.339Z,34.70
2018-06-21T13:10:24.453Z,34.60
2018-06-21T13:13:09.410Z,34.90
2018-06-21T13:15:38.327Z,35.20
2018-06-21T13:18:07.252Z,35.10
2018-06-21T13:20:36.211Z,34.90
2018-06-21T13:23:05.236Z,34.80
2018-06-21T13:25:34.533Z,34.80
2018-06-21T13:28:03.496Z,34.80
2018-06-21T13:30:32.371Z,34.60
2018-06-21T13:33:01.288Z,34.40
2018-06-21T13:35:30.251Z,34.50
2018-06-21T13:37:59.285Z,34.40
2018-06-21T13:40:28.273Z,34.20
2018-06-21T13:42:57.721Z,34.00
2018-06-21T13:45:26.778Z,33.90
2018-06-21T13:47:55.781Z,33.90
2018-06-21T13:50:24.739Z,33.80
2018-06-21T13:52:53.735Z,33.80
2018-06-21T13:55:22.677Z,33.70
2018-06-21T13:57:51.594Z,33.20
2018-06-21T14:00:20.565Z,32.00
2018-06-21T14:02:49.509Z,30.80
2018-06-21T14:05:18.454Z,29.60
2018-06-21T14:07:47.479Z,28.60
2018-06-21T14:10:16.343Z,27.70
2018-06-21T14:12:45.332Z,25.60
2018-06-21T14:15:14.269Z,23.70
2018-06-21T14:17:43.174Z,22.40
2018-06-21T14:20:12.135Z,21.70
2018-06-21T14:22:41.019Z,21.40
2018-06-21T14:25:09.923Z,21.10
2018-06-21T14:27:38.846Z,21.00
2018-06-21T14:30:07.811Z,21.00
2018-06-21T14:32:36.781Z,21.30
2018-06-21T14:35:05.704Z,21.60
2018-06-21T14:37:34.851Z,21.90
2018-06-21T14:40:04.026Z,22.30
2018-06-21T14:42:32.998Z,22.90
2018-06-21T14:45:02.087Z,23.40
2018-06-21T14:47:31.152Z,23.90
2018-06-21T14:50:00.629Z,24.50
2018-06-21T14:52:29.656Z,24.80
2018-06-21T14:54:58.612Z,24.80
2018-06-21T14:57:27.530Z,24.70
2018-06-21T14:59:56.486Z,24.60
2018-06-21T15:02:25.394Z,24.40
2018-06-21T15:04:54.345Z,24.20
2018-06-21T15:07:23.862Z,24.20
2018-06-21T15:09:52.787Z,24.00
2018-06-21T15:12:21.667Z,23.80
2018-06-21T15:14:50.594Z,23.60
2018-06-21T15:17:20.754Z,23.20
2018-06-21T15:19:49.773Z,23.10
2018-06-21T15:22:18.906Z,23.10
2018-06-21T15:24:48.143Z,22.90
2018-06-21T15:27:17.086Z,22.80
2018-06-21T15:29:45.974Z,22.60
2018-06-21T15:32:14.891Z,22.50
2018-06-21T15:34:59.098Z,22.40
2018-06-21T15:37:29.059Z,22.30
2018-06-21T15:39:58.006Z,22.20
2018-06-21T15:42:26.968Z,22.10
2018-06-21T15:44:55.898Z,22.10
2018-06-21T15:47:24.941Z,22.10
2018-06-21T15:49:54.947Z,22.00
2018-06-21T15:52:23.935Z,21.90
2018-06-21T15:54:52.862Z,21.80
2018-06-21T15:57:21.867Z,21.80
2018-06-21T15:59:50.783Z,21.80
2018-06-21T16:02:19.782Z,21.80
2018-06-21T16:04:48.773Z,21.80
2018-06-21T16:07:18.262Z,21.80
2018-06-21T16:09:47.226Z,21.70
2018-06-21T16:14:45.211Z,21.60
2018-06-21T16:17:14.155Z,21.50
2018-06-21T16:19:43.086Z,21.40
2018-06-21T16:22:12.420Z,21.20
2018-06-21T16:24:41.548Z,21.00
2018-06-21T16:27:10.547Z,20.90
2018-06-21T16:29:39.474Z,20.80
2018-06-21T16:32:08.402Z,20.80
2018-06-21T16:34:37.330Z,20.70
2018-06-21T16:37:06.966Z,20.60
2018-06-21T16:39:36.245Z,20.50
2018-06-21T16:44:33.827Z,20.40
2018-06-21T16:47:02.866Z,20.30
2018-06-21T16:49:31.799Z,20.20
2018-06-21T16:52:01.303Z,20.20
2018-06-21T16:54:30.313Z,20.00
2018-06-21T16:56:59.349Z,19.90
2018-06-21T16:59:28.312Z,19.80
2018-06-21T17:01:57.326Z,19.80
2018-06-21T17:04:26.535Z,19.70
2018-06-21T17:06:55.799Z,19.70
2018-06-21T17:09:24.735Z,19.70
2018-06-21T17:11:53.658Z,19.60
2018-06-21T17:14:22.600Z,19.60
2018-06-21T17:16:51.517Z,19.60
2018-06-21T17:19:20.452Z,19.60
2018-06-21T17:21:49.604Z,19.50
2018-06-21T17:24:18.518Z,19.50
2018-06-21T17:26:47.408Z,19.50
2018-06-21T17:29:16.365Z,19.40
2018-06-21T17:31:45.311Z,19.40
2018-06-21T17:34:14.203Z,19.40
2018-06-21T17:36:43.228Z,19.50
2018-06-21T17:39:12.294Z,19.50
2018-06-21T17:41:41.216Z,19.50
2018-06-21T17:46:38.744Z,19.20
2018-06-21T17:49:07.750Z,19.10
2018-06-21T17:51:36.745Z,18.80
2018-06-21T17:54:05.811Z,18.70
2018-06-21T17:56:34.925Z,18.50
2018-06-21T17:59:03.841Z,18.50
2018-06-21T18:01:33.656Z,18.50
2018-06-21T18:04:03.072Z,18.30
2018-06-21T18:06:31.995Z,18.20
2018-06-21T18:09:00.947Z,18.20
2018-06-21T18:11:30.031Z,18.20
2018-06-21T18:13:58.970Z,18.10
2018-06-21T18:16:28.009Z,18.10
2018-06-21T18:21:27.452Z,18.10
2018-06-21T18:23:56.783Z,18.00
2018-06-21T18:26:25.763Z,17.90
2018-06-21T18:28:54.713Z,17.90
2018-06-21T18:31:23.654Z,17.60
2018-06-21T18:33:52.624Z,17.60
2018-06-21T18:36:21.563Z,17.50
2018-06-21T18:38:50.498Z,17.40
2018-06-21T18:41:20.012Z,17.40
2018-06-21T18:43:48.970Z,17.30
2018-06-21T18:46:18.068Z,17.20
2018-06-21T18:48:47.042Z,17.10
2018-06-21T18:51:15.999Z,17.00
2018-06-21T18:53:44.903Z,17.00
2018-06-21T18:56:13.841Z,17.00
2018-06-21T18:58:42.717Z,17.00
2018-06-21T19:01:11.968Z,16.90
2018-06-21T19:03:40.940Z,16.80
2018-06-21T19:06:15.137Z,16.70
2018-06-21T19:08:49.326Z,16.60
2018-06-21T19:11:23.459Z,16.50
2018-06-21T19:13:52.426Z,16.50
2018-06-21T19:16:21.342Z,16.50
2018-06-21T19:18:50.372Z,16.50
2018-06-21T19:21:19.344Z,16.50
2018-06-21T19:24:09.462Z,16.50
2018-06-21T19:26:38.458Z,16.50
2018-06-21T19:29:07.387Z,16.40
2018-06-21T19:31:36.341Z,16.30
2018-06-21T19:34:05.651Z,16.10
2018-06-21T19:36:34.640Z,16.00
2018-06-21T19:39:03.717Z,15.90
2018-06-21T19:41:32.670Z,15.80
2018-06-21T19:44:04.125Z,15.80
2018-06-21T19:46:34.907Z,15.70
2018-06-21T19:49:05.236Z,15.70
2018-06-21T19:51:34.222Z,15.60
2018-06-21T19:54:03.656Z,15.50
2018-06-21T19:56:33.553Z,15.40
2018-06-21T19:59:02.482Z,15.40
2018-06-21T20:01:31.501Z,15.30
2018-06-21T20:04:00.396Z,15.30
2018-06-21T20:06:29.330Z,15.20
2018-06-21T20:08:58.308Z,15.20
2018-06-21T20:11:32.451Z,15.10
2018-06-21T20:14:01.570Z,15.10
2018-06-21T20:16:30.907Z,15.10
2018-06-21T20:19:07.284Z,15.00
2018-06-21T20:21:36.759Z,14.90
2018-06-21T20:24:05.753Z,14.80
2018-06-21T20:26:34.643Z,14.80
2018-06-21T20:29:03.694Z,14.70
2018-06-21T20:31:32.960Z,14.70
2018-06-21T20:34:02.726Z,14.70
2018-06-21T20:36:32.130Z,14.60
2018-06-21T20:39:01.062Z,14.60
2018-06-21T20:41:29.992Z,14.60
2018-06-21T20:43:59.455Z,14.60
2018-06-21T20:46:28.415Z,14.50
2018-06-21T20:48:57.359Z,14.50
2018-06-21T20:51:26.285Z,14.30
2018-06-21T20:53:55.407Z,14.30
2018-06-21T20:56:24.595Z,14.30
2018-06-21T20:58:53.699Z,14.20
2018-06-21T21:01:23.944Z,14.20
2018-06-21T21:03:53.327Z,14.10
2018-06-21T21:06:22.258Z,14.00
2018-06-21T21:08:51.774Z,14.00
2018-06-21T21:11:20.653Z,14.00
2018-06-21T21:13:49.583Z,13.90
2018-06-21T21:16:18.487Z,13.90
2018-06-21T21:18:47.379Z,13.90
2018-06-21T21:21:16.415Z,13.80
2018-06-21T21:23:51.218Z,13.70
2018-06-21T21:26:20.138Z,13.60
2018-06-21T21:28:49.138Z,13.60
2018-06-21T21:31:17.980Z,13.50
2018-06-21T21:33:47.488Z,13.50
2018-06-21T21:36:16.388Z,13.50
2018-06-21T21:38:45.874Z,13.50
2018-06-21T21:41:14.763Z,13.50
2018-06-21T21:43:43.666Z,13.50
2018-06-21T21:46:12.586Z,13.40
2018-06-21T21:48:41.547Z,13.40
2018-06-21T21:51:10.463Z,13.40
2018-06-21T21:53:39.380Z,13.50
2018-06-21T21:56:09.446Z,13.50
2018-06-21T21:58:38.676Z,13.60
2018-06-21T22:01:07.599Z,13.70
2018-06-21T22:03:36.475Z,13.70
2018-06-21T22:06:05.399Z,13.70
2018-06-21T22:08:34.961Z,13.70
2018-06-21T22:11:04.387Z,13.80
2018-06-21T22:13:33.346Z,13.80
2018-06-21T22:16:02.340Z,13.80
2018-06-21T22:18:31.279Z,13.80
2018-06-21T22:21:00.175Z,13.80
2018-06-21T22:23:29.577Z,13.90
2018-06-21T22:25:58.455Z,14.00
2018-06-21T22:28:27.662Z,14.00
2018-06-21T22:30:56.799Z,14.00
2018-06-21T22:33:26.005Z,14.10
2018-06-21T22:35:55.573Z,14.10
2018-06-21T22:38:24.552Z,14.10
2018-06-21T22:40:53.466Z,14.10
2018-06-21T22:43:22.326Z,14.10
2018-06-21T22:45:51.270Z,14.10
2018-06-21T22:48:21.162Z,14.10
2018-06-21T22:50:50.071Z,14.10
2018-06-21T22:53:18.957Z,14.10
2018-06-21T22:55:48.237Z,14.10
2018-06-21T22:58:17.181Z,14.00
2018-06-21T23:00:46.079Z,14.00
2018-06-21T23:03:14.948Z,14.00
2018-06-21T23:05:43.999Z,13.90
2018-06-21T23:08:14.207Z,13.90
2018-06-21T23:10:43.416Z,13.90
2018-06-21T23:13:12.381Z,13.90
2018-06-21T23:15:41.559Z,13.80
2018-06-21T23:18:10.554Z,13.80
2018-06-21T23:20:39.442Z,13.70
2018-06-21T23:23:08.382Z,13.70
2018-06-21T23:25:37.251Z,13.70
2018-06-21T23:28:06.360Z,13.70
2018-06-21T23:30:35.238Z,13.60
2018-06-21T23:33:04.163Z,13.50
2018-06-21T23:35:33.054Z,13.40
2018-06-21T23:38:01.951Z,13.30
2018-06-21T23:40:30.886Z,13.30
2018-06-21T23:42:59.759Z,13.20
2018-06-21T23:45:28.683Z,13.10
2018-06-21T23:47:57.579Z,13.10
2018-06-21T23:50:26.523Z,13.00
2018-06-21T23:52:56.112Z,13.00
2018-06-21T23:55:25.383Z,12.90
2018-06-21T23:57:54.279Z,12.90
